Ennadai, Canada
Current Conditions -  °F | °C
As of 1:12 AM on Monday 24 Nov 2014 (Local Time) from CYBQ Reporting Station
Light Snow Light Snow  
Wind Chill: -11°   Ceiling: 4800
Heat Index: -11°   Visibility: 7mi
Dew Point: -15°   Wind: 2mph
Humidity: 84%   Direction: 140°SE
Pressure: 29.81"   Gusts: NA
Location:  61.13°N, 100.88°W
Report Text: CYBQ 240712Z AUTO 14002KT 7SM -SN BKN048 OVC070 M24/M26 A2981 RMK SLP134
Loading
Personal Weather Stations






























Interactive Weather Map New forecast layout! Learn more

10-Day Weather Forecast

Advertisements
Track Severe Weather on mobile